Time;durP1;ratioP1;P1;durP2;ratioP2;P2;SDS_P1;SDS_P2;PMS_P1;PMS_P2;Temp;Humidity;BMP_temperature;BMP_pressure;BME280_temperature;BME280_humidity;BME280_pressure;Samples;Min_cycle;Max_cycle;Signal;HPM_P1;HPM_P2
2021/05/25 00:01:17;;;;;;;10.68;3.55;;;;;;;5.67;100.00;100885.59;5240779;28;20671;-84
2021/05/25 00:03:48;;;;;;;11.50;3.42;;;;;;;5.70;100.00;100880.84;5242851;28;20388;-85
2021/05/25 00:06:18;;;;;;;11.98;3.70;;;;;;;5.61;100.00;100886.13;5240940;28;20036;-84
2021/05/25 00:08:49;;;;;;;10.18;4.13;;;;;;;5.64;100.00;100886.72;5235466;28;20119;-84
2021/05/25 00:11:19;;;;;;;9.07;4.03;;;;;;;5.69;100.00;100891.63;5248362;28;20024;-85
2021/05/25 00:13:50;;;;;;;13.43;4.47;;;;;;;5.66;100.00;100884.75;5247574;28;20027;-85
2021/05/25 00:16:21;;;;;;;18.00;4.80;;;;;;;5.72;100.00;100881.56;5232619;28;20548;-85
2021/05/25 00:18:52;;;;;;;13.77;4.18;;;;;;;5.82;100.00;100878.06;5236533;28;20047;-84
2021/05/25 00:21:23;;;;;;;11.25;3.80;;;;;;;5.80;100.00;100877.38;5242951;28;20021;-84
2021/05/25 00:23:53;;;;;;;19.45;4.80;;;;;;;5.86;100.00;100890.16;5239223;28;20058;-84
2021/05/25 00:26:26;;;;;;;13.70;4.43;;;;;;;5.89;100.00;100882.75;5249134;28;20024;-84
2021/05/25 00:28:56;;;;;;;13.18;4.45;;;;;;;5.95;100.00;100884.06;5248535;28;20020;-83
2021/05/25 00:31:27;;;;;;;12.52;4.35;;;;;;;5.97;100.00;100876.75;5234078;28;20522;-83
2021/05/25 00:33:58;;;;;;;13.38;4.38;;;;;;;6.03;100.00;100870.91;5248109;28;20024;-84
2021/05/25 00:36:29;;;;;;;17.60;4.65;;;;;;;6.06;100.00;100869.78;5248389;28;20025;-84
2021/05/25 00:38:59;;;;;;;12.48;4.43;;;;;;;6.08;100.00;100876.66;5246389;28;20392;-82
2021/05/25 00:41:30;;;;;;;22.00;4.15;;;;;;;6.10;100.00;100864.03;5234478;28;20040;-84
2021/05/25 00:44:00;;;;;;;14.40;4.65;;;;;;;6.17;100.00;100865.16;5245281;28;20103;-84
2021/05/25 00:46:30;;;;;;;17.45;4.28;;;;;;;6.22;100.00;100870.09;5227508;28;20341;-85
2021/05/25 00:49:02;;;;;;;16.20;3.60;;;;;;;6.22;100.00;100875.41;5230811;28;20040;-85
2021/05/25 00:51:33;;;;;;;14.70;4.38;;;;;;;6.25;100.00;100875.16;5244357;28;20471;-85
2021/05/25 00:54:04;;;;;;;8.88;3.78;;;;;;;6.20;100.00;100869.41;5238638;28;20023;-83
2021/05/25 00:56:35;;;;;;;12.30;3.60;;;;;;;6.21;100.00;100871.91;5251036;28;20028;-84
2021/05/25 00:59:06;;;;;;;9.82;3.33;;;;;;;6.11;100.00;100878.19;5251547;28;20073;-85
2021/05/25 01:01:37;;;;;;;10.18;2.95;;;;;;;6.14;100.00;100870.78;5237539;28;20384;-85
2021/05/25 01:04:08;;;;;;;13.50;3.30;;;;;;;6.07;100.00;100879.44;5251735;28;20097;-85
2021/05/25 01:06:39;;;;;;;9.40;3.38;;;;;;;6.02;100.00;100879.84;5250940;28;20047;-84
2021/05/25 01:09:12;;;;;;;8.60;2.65;;;;;;;5.99;100.00;100880.16;5239316;28;20531;-84
2021/05/25 01:12:05;;;;;;;11.95;3.05;;;;;;;5.93;100.00;100878.03;5237829;28;20104;-84
2021/05/25 01:14:44;;;;;;;7.97;2.47;;;;;;;5.92;100.00;100879.84;5251084;28;20110;-82
2021/05/25 01:17:19;;;;;;;10.68;2.75;;;;;;;5.90;100.00;100876.44;5242104;28;20108;-84
2021/05/25 01:20:05;;;;;;;;;;;;;;;5.90;100.00;100879.09;5244038;28;20029;-85
2021/05/25 01:22:41;;;;;;;7.60;2.88;;;;;;;5.92;100.00;100877.19;5246877;28;19915;-84
2021/05/25 01:25:13;;;;;;;7.03;2.47;;;;;;;5.94;100.00;100882.38;5251263;28;20033;-84
2021/05/25 01:27:52;;;;;;;9.88;2.70;;;;;;;5.87;100.00;100887.38;5235601;28;20315;-84
2021/05/25 01:30:26;;;;;;;6.88;2.90;;;;;;;5.85;100.00;100878.66;5242459;28;20035;-84
2021/05/25 01:32:57;;;;;;;9.38;2.60;;;;;;;5.91;100.00;100880.81;5232627;28;20029;-85
2021/05/25 01:35:29;;;;;;;10.27;2.85;;;;;;;6.05;100.00;100889.41;5245838;28;20028;-85
2021/05/25 01:38:01;;;;;;;5.47;2.25;;;;;;;6.08;100.00;100884.66;5252462;28;20480;-84
2021/05/25 01:40:34;;;;;;;6.13;2.53;;;;;;;6.11;100.00;100888.84;5250356;28;20370;-84
2021/05/25 01:43:05;;;;;;;6.05;2.70;;;;;;;6.14;100.00;100897.44;5240056;28;20052;-84
2021/05/25 01:45:37;;;;;;;7.45;2.60;;;;;;;6.12;100.00;100887.88;5248258;28;20028;-85
2021/05/25 01:48:09;;;;;;;6.53;2.30;;;;;;;6.08;100.00;100889.16;5242440;28;20126;-84
2021/05/25 01:50:41;;;;;;;10.32;2.88;;;;;;;6.15;100.00;100884.94;5244642;28;20017;-85
2021/05/25 01:53:14;;;;;;;8.05;2.38;;;;;;;6.13;100.00;100886.91;5232198;28;20441;-84
2021/05/25 01:55:48;;;;;;;6.75;1.85;;;;;;;6.16;100.00;100887.47;5251067;28;20024;-85
2021/05/25 01:58:24;;;;;;;6.85;2.20;;;;;;;6.19;100.00;100891.69;5250293;28;20094;-83
2021/05/25 02:01:03;;;;;;;11.93;2.75;;;;;;;6.17;100.00;100899.78;5250760;28;20382;-83
2021/05/25 02:03:36;;;;;;;9.55;2.45;;;;;;;6.25;100.00;100893.81;5251368;28;20051;-85
2021/05/25 02:06:09;;;;;;;8.70;2.80;;;;;;;6.30;100.00;100891.56;5251207;28;20039;-83
2021/05/25 02:08:40;;;;;;;10.32;2.55;;;;;;;6.33;100.00;100898.47;5250954;28;20484;-85
2021/05/25 02:11:10;;;;;;;7.40;2.70;;;;;;;6.40;100.00;100891.59;5236263;28;20029;-85
2021/05/25 02:13:53;;;;;;;8.50;2.78;;;;;;;6.43;100.00;100888.66;5230142;28;20511;-85
2021/05/25 02:16:24;;;;;;;8.60;2.72;;;;;;;6.47;100.00;100890.03;5244457;28;20035;-85
2021/05/25 02:18:54;;;;;;;7.03;2.65;;;;;;;6.55;100.00;100884.88;5241021;28;20016;-84
2021/05/25 02:21:25;;;;;;;11.02;2.78;;;;;;;6.65;100.00;100890.22;5243119;28;20017;-85
2021/05/25 02:23:55;;;;;;;10.85;3.15;;;;;;;6.64;100.00;100893.84;5227888;28;20055;-84
2021/05/25 02:26:26;;;;;;;8.63;2.83;;;;;;;6.69;100.00;100897.78;5249940;28;20024;-85
2021/05/25 02:28:56;;;;;;;16.73;3.75;;;;;;;6.75;100.00;100907.03;5236426;28;20024;-82
2021/05/25 02:31:27;;;;;;;6.88;2.53;;;;;;;6.78;100.00;100904.13;5238219;28;20384;-85
2021/05/25 02:33:58;;;;;;;11.70;2.60;;;;;;;6.83;100.00;100893.88;5251195;28;20162;-84
2021/05/25 02:36:28;;;;;;;8.32;2.50;;;;;;;6.90;100.00;100902.97;5250870;28;20032;-84
2021/05/25 02:38:59;;;;;;;6.50;2.78;;;;;;;6.97;100.00;100903.25;5250588;28;20497;-85
2021/05/25 02:41:29;;;;;;;12.23;2.58;;;;;;;6.93;100.00;100900.03;5251095;28;20162;-85
2021/05/25 02:44:00;;;;;;;11.02;3.45;;;;;;;6.98;100.00;100905.78;5233136;28;20040;-85
2021/05/25 02:46:30;;;;;;;9.35;2.67;;;;;;;7.01;100.00;100900.16;5238614;28;20033;-86
2021/05/25 02:49:01;;;;;;;15.55;4.28;;;;;;;7.06;100.00;100910.41;5244157;28;20035;-84
2021/05/25 02:51:31;;;;;;;7.30;2.65;;;;;;;7.08;100.00;100907.56;5258509;28;20043;-83
2021/05/25 02:54:02;;;;;;;6.07;2.78;;;;;;;7.10;100.00;100908.28;5252129;28;20035;-84
2021/05/25 02:56:33;;;;;;;8.77;2.88;;;;;;;7.12;100.00;100912.50;5253764;28;20460;-84
2021/05/25 02:59:03;;;;;;;10.50;3.10;;;;;;;7.15;100.00;100914.06;5266185;28;20055;-84
2021/05/25 03:01:34;;;;;;;10.27;2.45;;;;;;;7.19;100.00;100916.28;5255951;28;20021;-84
2021/05/25 03:04:04;;;;;;;9.27;2.55;;;;;;;7.26;100.00;100916.56;5260114;28;20029;-86
2021/05/25 03:06:35;;;;;;;13.75;2.78;;;;;;;7.26;100.00;100913.88;5262547;28;20008;-83
2021/05/25 03:09:05;;;;;;;6.68;2.83;;;;;;;7.36;100.00;100916.53;5268486;28;20008;-85
2021/05/25 03:11:36;;;;;;;11.45;3.97;;;;;;;7.33;100.00;100924.81;5268375;28;20111;-83
2021/05/25 03:14:06;;;;;;;8.05;3.38;;;;;;;7.40;100.00;100923.28;5268601;28;20046;-86
2021/05/25 03:16:37;;;;;;;7.90;3.13;;;;;;;7.38;100.00;100911.88;5249083;28;20036;-87
2021/05/25 03:19:10;;;;;;;9.90;3.20;;;;;;;7.35;100.00;100921.03;5257674;28;20051;-83
2021/05/25 03:21:41;;;;;;;5.53;3.22;;;;;;;7.35;100.00;100934.38;5255774;28;20001;-85
2021/05/25 03:24:12;;;;;;;8.93;3.97;;;;;;;7.39;100.00;100927.78;5247256;28;20085;-83
2021/05/25 03:26:42;;;;;;;6.60;3.28;;;;;;;7.46;100.00;100925.38;5247370;28;20044;-83
2021/05/25 03:29:13;;;;;;;5.53;2.95;;;;;;;7.43;100.00;100926.50;5258512;28;20080;-85
2021/05/25 03:31:44;;;;;;;4.90;2.85;;;;;;;7.44;100.00;100933.53;5252545;28;20017;-84
2021/05/25 03:34:14;;;;;;;9.77;3.35;;;;;;;7.47;100.00;100943.91;5263953;28;20024;-84
2021/05/25 03:36:45;;;;;;;7.32;4.03;;;;;;;7.42;100.00;100946.16;5259283;28;20040;-86
2021/05/25 03:39:15;;;;;;;9.93;4.03;;;;;;;7.39;100.00;100943.78;5257002;28;20031;-84
2021/05/25 03:41:45;;;;;;;7.20;3.50;;;;;;;7.38;100.00;100949.25;5264240;28;20100;-83
2021/05/25 03:44:16;;;;;;;6.30;2.67;;;;;;;7.35;100.00;100939.72;5269215;28;20008;-83
2021/05/25 03:46:46;;;;;;;9.02;3.65;;;;;;;7.24;100.00;100940.72;5242171;28;20025;-85
2021/05/25 03:49:18;;;;;;;7.07;3.35;;;;;;;7.25;100.00;100945.06;5238820;28;20032;-83
2021/05/25 03:51:49;;;;;;;6.60;3.58;;;;;;;7.16;100.00;100940.56;5234480;28;20044;-83
2021/05/25 03:54:24;;;;;;;4.63;3.50;;;;;;;7.19;100.00;100952.81;5235690;28;20103;-84
2021/05/25 03:56:59;;;;;;;10.60;4.20;;;;;;;7.14;100.00;100955.91;5249421;28;20029;-84
2021/05/25 03:59:29;;;;;;;9.32;4.78;;;;;;;7.21;100.00;100961.50;5266677;28;20035;-86
2021/05/25 04:01:59;;;;;;;12.20;4.93;;;;;;;7.21;100.00;100967.69;5266200;28;20032;-84
2021/05/25 04:04:31;;;;;;;8.60;4.50;;;;;;;7.21;100.00;100965.00;5247031;28;20398;-84
2021/05/25 04:07:03;;;;;;;9.40;4.25;;;;;;;7.16;100.00;100967.25;5234924;28;20028;-84
2021/05/25 04:09:33;;;;;;;8.80;3.63;;;;;;;7.13;100.00;100959.56;5235459;28;20029;-84
2021/05/25 04:12:04;;;;;;;8.05;4.03;;;;;;;7.11;100.00;100963.34;5248224;28;20028;-84
2021/05/25 04:14:35;;;;;;;9.30;5.30;;;;;;;7.07;100.00;100969.94;5230923;28;20373;-84
2021/05/25 04:17:05;;;;;;;7.80;3.63;;;;;;;7.03;100.00;100976.53;5227205;28;20021;-83
2021/05/25 04:19:36;;;;;;;13.20;2.92;;;;;;;7.11;100.00;100982.84;5229107;28;20480;-84
2021/05/25 04:22:06;;;;;;;4.65;2.45;;;;;;;7.09;100.00;100982.16;5235113;28;20540;-84
2021/05/25 04:24:37;;;;;;;4.18;2.47;;;;;;;7.08;100.00;100987.63;5233554;28;20395;-83
2021/05/25 04:27:07;;;;;;;6.68;2.40;;;;;;;7.06;100.00;100995.75;5249210;28;20023;-84
2021/05/25 04:29:38;;;;;;;3.40;2.22;;;;;;;6.95;100.00;101001.25;5229979;28;20108;-83
2021/05/25 04:32:08;;;;;;;10.10;5.18;;;;;;;6.96;100.00;101018.91;5241969;28;20497;-84
2021/05/25 04:34:39;;;;;;;5.93;3.13;;;;;;;6.91;100.00;101030.00;5249350;28;20495;-83
2021/05/25 04:37:10;;;;;;;6.72;2.58;;;;;;;6.91;100.00;101032.66;5234383;28;20423;-84
2021/05/25 04:39:40;;;;;;;5.25;3.08;;;;;;;6.83;100.00;101016.53;5228305;28;20029;-84
2021/05/25 04:42:11;;;;;;;4.43;2.80;;;;;;;6.80;100.00;101024.81;5244689;28;20029;-83
2021/05/25 04:44:42;;;;;;;9.73;2.70;;;;;;;6.75;100.00;101019.03;5239082;28;20070;-83
2021/05/25 04:47:12;;;;;;;14.38;9.80;;;;;;;6.79;100.00;101028.44;5232381;28;20024;-85
2021/05/25 04:49:43;;;;;;;15.18;7.97;;;;;;;6.63;100.00;101028.13;5248745;28;20074;-84
2021/05/25 04:52:13;;;;;;;16.45;7.70;;;;;;;6.60;100.00;101026.56;5245716;28;20028;-84
2021/05/25 04:54:44;;;;;;;0.93;0.70;;;;;;;6.46;100.00;101019.78;5240367;28;20029;-84
2021/05/25 04:57:14;;;;;;;2.72;2.10;;;;;;;6.51;100.00;101018.53;5235104;28;20055;-83
2021/05/25 04:59:44;;;;;;;2.00;1.27;;;;;;;6.54;100.00;101028.94;5235162;28;20029;-83
2021/05/25 05:02:15;;;;;;;3.95;2.30;;;;;;;6.58;100.00;101035.69;5228317;28;20500;-83
2021/05/25 05:04:46;;;;;;;4.47;1.92;;;;;;;6.66;100.00;101034.03;5242372;28;20479;-83
2021/05/25 05:07:16;;;;;;;5.75;3.05;;;;;;;6.79;100.00;101039.13;5248775;28;20052;-83
2021/05/25 05:09:47;;;;;;;8.98;4.15;;;;;;;6.81;100.00;101033.63;5234995;28;20448;-84
2021/05/25 05:12:17;;;;;;;7.60;4.18;;;;;;;6.91;100.00;101038.00;5247473;28;20039;-84
2021/05/25 05:14:48;;;;;;;9.43;4.30;;;;;;;6.99;100.00;101056.84;5248193;28;20064;-83
2021/05/25 05:17:19;;;;;;;6.00;3.38;;;;;;;7.03;100.00;101038.75;5238951;28;20036;-86
2021/05/25 05:19:50;;;;;;;139.10;53.47;;;;;;;7.11;100.00;101048.72;5227500;28;20025;-83
2021/05/25 05:22:21;;;;;;;110.22;50.55;;;;;;;6.96;100.00;101043.78;5227725;28;20396;-83
2021/05/25 05:24:51;;;;;;;37.95;22.02;;;;;;;6.99;100.00;101061.34;5247364;28;20020;-84
2021/05/25 05:27:22;;;;;;;102.30;64.78;;;;;;;7.07;100.00;101055.28;5248514;28;20020;-85
2021/05/25 05:29:52;;;;;;;45.55;30.10;;;;;;;7.12;100.00;101053.91;5240675;28;20102;-83
2021/05/25 05:32:23;;;;;;;29.52;18.67;;;;;;;7.18;100.00;101065.88;5242118;28;20549;-85
2021/05/25 05:34:53;;;;;;;15.30;8.07;;;;;;;7.19;100.00;101064.88;5248155;28;20079;-83
2021/05/25 05:37:24;;;;;;;14.70;8.57;;;;;;;7.19;100.00;101059.53;5234719;28;20029;-83
2021/05/25 05:39:55;;;;;;;21.45;10.10;;;;;;;7.21;100.00;101070.91;5247628;28;20025;-83
2021/05/25 05:42:26;;;;;;;18.73;10.43;;;;;;;7.22;100.00;101073.44;5248179;28;20560;-84
2021/05/25 05:44:57;;;;;;;22.55;13.20;;;;;;;7.27;100.00;101083.69;5248068;28;20025;-83
2021/05/25 05:47:27;;;;;;;21.20;11.75;;;;;;;7.34;100.00;101084.00;5228761;28;20104;-84
2021/05/25 05:49:58;;;;;;;19.20;11.30;;;;;;;7.31;100.00;101087.78;5240108;28;20013;-84
2021/05/25 05:52:28;;;;;;;19.67;11.25;;;;;;;7.35;100.00;101099.84;5240554;28;20023;-83
2021/05/25 05:54:58;;;;;;;21.00;11.70;;;;;;;7.37;100.00;101105.88;5228001;28;20116;-83
2021/05/25 05:57:29;;;;;;;22.25;12.05;;;;;;;7.40;100.00;101108.28;5248015;28;20032;-82
2021/05/25 05:59:59;;;;;;;29.50;13.95;;;;;;;7.53;100.00;101119.53;5247842;28;20032;-84
2021/05/25 06:02:30;;;;;;;33.97;15.13;;;;;;;7.51;100.00;101123.31;5238890;28;20134;-83
2021/05/25 06:05:00;;;;;;;28.15;14.13;;;;;;;7.60;100.00;101125.16;5240362;28;20029;-84
2021/05/25 06:07:31;;;;;;;31.88;14.88;;;;;;;7.61;100.00;101134.84;5237276;28;20347;-84
2021/05/25 06:10:03;;;;;;;35.58;17.15;;;;;;;7.63;100.00;101138.25;5228552;28;20498;-83
2021/05/25 06:12:34;;;;;;;30.73;15.57;;;;;;;7.64;100.00;101134.59;5227058;28;20029;-85
2021/05/25 06:15:05;;;;;;;24.73;13.52;;;;;;;7.71;100.00;101138.38;5240349;28;20480;-84
2021/05/25 06:17:38;;;;;;;25.75;14.93;;;;;;;7.76;100.00;101140.63;5227842;28;20037;-84
2021/05/25 06:20:09;;;;;;;33.83;16.60;;;;;;;7.79;100.00;101138.53;5234365;28;20029;-84
2021/05/25 06:22:39;;;;;;;36.50;20.67;;;;;;;7.83;100.00;101135.53;5246487;28;20471;-84
2021/05/25 06:25:12;;;;;;;37.42;19.88;;;;;;;7.91;100.00;101149.88;5247860;28;20116;-86
2021/05/25 06:27:43;;;;;;;23.90;15.20;;;;;;;8.02;100.00;101148.91;5233595;28;20042;-82
2021/05/25 06:30:15;;;;;;;19.05;11.10;;;;;;;8.18;100.00;101141.16;5247686;28;20020;-86
2021/05/25 06:32:45;;;;;;;17.73;9.70;;;;;;;8.22;100.00;101144.38;5234369;28;20547;-83
2021/05/25 06:35:16;;;;;;;18.08;8.63;;;;;;;8.27;100.00;101142.09;5247553;28;20123;-83
2021/05/25 06:37:47;;;;;;;15.57;6.63;;;;;;;8.24;100.00;101142.41;5247073;28;20064;-83
2021/05/25 06:40:18;;;;;;;11.02;6.30;;;;;;;8.23;100.00;101148.72;5245487;28;20037;-85
2021/05/25 06:42:48;;;;;;;15.77;5.88;;;;;;;8.22;100.00;101155.06;5233724;28;20021;-84
2021/05/25 06:45:19;;;;;;;7.60;4.07;;;;;;;8.22;100.00;101160.41;5229606;28;20404;-85
2021/05/25 06:47:50;;;;;;;10.07;4.00;;;;;;;8.19;100.00;101153.53;5234245;28;20375;-84
2021/05/25 06:50:21;;;;;;;8.13;3.83;;;;;;;8.19;100.00;101174.06;5231957;28;20024;-85
2021/05/25 06:52:51;;;;;;;7.38;4.18;;;;;;;8.15;100.00;101173.50;5235833;28;20104;-83
2021/05/25 06:55:22;;;;;;;11.70;6.18;;;;;;;8.22;100.00;101185.28;5242857;28;20069;-84
2021/05/25 06:57:52;;;;;;;10.13;3.88;;;;;;;8.31;100.00;101187.13;5246208;28;20409;-84
2021/05/25 07:00:23;;;;;;;10.27;5.70;;;;;;;8.42;100.00;101193.31;5227181;28;20140;-86
2021/05/25 07:02:54;;;;;;;8.75;4.93;;;;;;;8.56;100.00;101195.53;5225692;28;20055;-85
2021/05/25 07:05:25;;;;;;;13.60;5.80;;;;;;;8.70;100.00;101202.28;5224800;28;20033;-84
2021/05/25 07:07:55;;;;;;;8.85;5.40;;;;;;;8.79;100.00;101214.78;5225483;28;20029;-85
2021/05/25 07:10:26;;;;;;;12.05;6.50;;;;;;;8.80;100.00;101217.31;5245268;28;20032;-85
2021/05/25 07:12:56;;;;;;;14.98;7.43;;;;;;;8.89;100.00;101220.94;5243806;28;20052;-84
2021/05/25 07:15:27;;;;;;;13.73;6.65;;;;;;;9.06;100.00;101224.66;5233987;28;20032;-86
2021/05/25 07:17:57;;;;;;;12.63;7.43;;;;;;;9.20;100.00;101223.34;5229783;28;20025;-84
2021/05/25 07:20:28;;;;;;;14.57;7.10;;;;;;;9.32;100.00;101223.00;5224184;28;20120;-84
2021/05/25 07:22:59;;;;;;;14.77;8.77;;;;;;;9.51;100.00;101210.50;5228708;28;20046;-85
2021/05/25 07:25:29;;;;;;;22.42;8.68;;;;;;;9.64;100.00;101226.19;5234230;28;20473;-86
2021/05/25 07:28:00;;;;;;;11.13;7.03;;;;;;;9.98;100.00;101219.16;5238203;28;20024;-85
2021/05/25 07:30:30;;;;;;;14.90;6.57;;;;;;;10.11;100.00;101218.78;5236204;28;20028;-86
2021/05/25 07:33:00;;;;;;;16.80;5.95;;;;;;;10.33;100.00;101217.50;5231854;28;20071;-85
2021/05/25 07:35:31;;;;;;;12.43;5.85;;;;;;;10.89;100.00;101219.75;5244622;28;20031;-85
2021/05/25 07:38:02;;;;;;;13.10;4.97;;;;;;;10.81;100.00;101233.09;5224381;28;20500;-85
2021/05/25 07:40:32;;;;;;;13.40;5.03;;;;;;;10.60;100.00;101246.06;5237528;28;20029;-85
2021/05/25 07:43:03;;;;;;;12.10;4.65;;;;;;;10.26;100.00;101244.09;5233251;28;20031;-84
2021/05/25 07:45:34;;;;;;;14.52;7.63;;;;;;;9.85;100.00;101253.56;5241160;28;20175;-85
2021/05/25 07:48:05;;;;;;;16.55;9.48;;;;;;;9.73;100.00;101254.75;5224226;28;20029;-84
2021/05/25 07:50:35;;;;;;;22.48;8.38;;;;;;;9.56;100.00;101262.63;5237850;28;20411;-84
2021/05/25 07:53:06;;;;;;;19.58;7.32;;;;;;;9.49;100.00;101272.25;5225853;28;20029;-85
2021/05/25 07:55:37;;;;;;;14.23;5.68;;;;;;;9.41;100.00;101261.44;5230159;28;20507;-85
2021/05/25 07:58:08;;;;;;;12.23;6.28;;;;;;;9.22;100.00;101256.16;5230967;28;20043;-84
2021/05/25 08:00:39;;;;;;;18.73;7.32;;;;;;;9.20;100.00;101261.66;5217364;28;20020;-84
2021/05/25 08:03:11;;;;;;;18.33;7.78;;;;;;;9.26;100.00;101289.69;5231971;28;20047;-84
2021/05/25 08:05:41;;;;;;;19.48;7.43;;;;;;;9.35;100.00;101296.84;5243051;28;20099;-85
2021/05/25 08:08:12;;;;;;;20.00;8.35;;;;;;;9.44;100.00;101295.09;5228862;28;20164;-85
2021/05/25 08:10:42;;;;;;;20.52;7.47;;;;;;;9.71;100.00;101288.91;5223868;28;20446;-86
2021/05/25 08:13:13;;;;;;;15.02;6.82;;;;;;;9.73;100.00;101289.59;5224247;28;20025;-86
2021/05/25 08:15:43;;;;;;;17.67;7.18;;;;;;;10.07;100.00;101293.31;5235198;28;20112;-85
2021/05/25 08:18:25;;;;;;;21.70;11.45;;;;;;;10.35;100.00;101302.19;5230866;28;20279;-86
2021/05/25 08:20:55;;;;;;;42.15;13.73;;;;;;;10.73;100.00;101302.81;5229296;28;20036;-84
2021/05/25 08:23:26;;;;;;;17.85;6.97;;;;;;;10.95;100.00;101301.47;5237066;28;20029;-85
2021/05/25 08:25:56;;;;;;;23.20;12.00;;;;;;;11.30;100.00;101297.00;5236753;28;20028;-85
2021/05/25 08:28:27;;;;;;;12.98;5.63;;;;;;;11.50;100.00;101302.97;5224008;28;20083;-85
2021/05/25 08:30:57;;;;;;;14.30;5.25;;;;;;;11.46;100.00;101306.97;5225878;28;20434;-85
2021/05/25 08:33:28;;;;;;;13.52;5.72;;;;;;;11.57;100.00;101314.75;5234271;28;20147;-85
2021/05/25 08:35:59;;;;;;;9.57;5.47;;;;;;;11.50;100.00;101319.09;5227788;28;20028;-85
2021/05/25 08:38:30;;;;;;;13.15;5.55;;;;;;;11.46;100.00;101318.56;5237672;28;20024;-85
2021/05/25 08:41:02;;;;;;;10.48;4.68;;;;;;;11.70;100.00;101322.31;5244105;28;20013;-86
2021/05/25 08:43:33;;;;;;;17.50;5.13;;;;;;;11.62;100.00;101323.16;5257419;28;20072;-86
2021/05/25 08:46:05;;;;;;;12.35;5.20;;;;;;;11.76;100.00;101329.78;5244909;28;20108;-85
2021/05/25 08:48:40;;;;;;;10.23;4.75;;;;;;;11.79;100.00;101332.13;5239089;28;20390;-85
2021/05/25 08:51:11;;;;;;;11.82;5.30;;;;;;;12.13;100.00;101330.25;5244104;28;20013;-85
2021/05/25 08:53:41;;;;;;;10.07;5.13;;;;;;;12.40;100.00;101328.28;5230254;28;20065;-85
2021/05/25 08:56:12;;;;;;;12.32;4.70;;;;;;;12.87;100.00;101331.16;5233946;28;20043;-86
2021/05/25 08:58:42;;;;;;;12.75;5.10;;;;;;;13.28;100.00;101339.19;5223361;28;20563;-85
2021/05/25 09:01:13;;;;;;;8.65;4.40;;;;;;;13.29;100.00;101340.03;5235169;28;20107;-86
2021/05/25 09:03:56;;;;;;;9.05;3.88;;;;;;;13.18;100.00;101343.91;5230318;28;20107;-86
2021/05/25 09:06:39;;;;;;;9.90;3.80;;;;;;;13.08;100.00;101345.94;5230986;28;20032;-85
2021/05/25 09:09:12;;;;;;;26.30;10.60;;;;;;;12.81;100.00;101339.06;5246757;28;20028;-86
2021/05/25 09:12:03;;;;;;;113.43;37.03;;;;;;;12.76;100.00;101338.75;5229226;28;20078;-86
2021/05/25 09:14:47;;;;;;;25.02;11.95;;;;;;;12.82;100.00;101341.59;5241801;28;20024;-86
2021/05/25 09:17:22;;;;;;;8.48;4.40;;;;;;;12.78;100.00;101339.41;5238315;28;20480;-86
2021/05/25 09:19:55;;;;;;;5.73;3.33;;;;;;;13.02;100.00;101339.38;5240265;28;20086;-86
2021/05/25 09:22:34;;;;;;;5.88;2.95;;;;;;;13.09;100.00;101334.97;5227091;28;20057;-86
2021/05/25 09:25:09;;;;;;;6.78;3.40;;;;;;;13.34;100.00;101337.66;5214086;28;20574;-85
2021/05/25 09:27:43;;;;;;;9.18;3.78;;;;;;;13.29;100.00;101329.25;5240113;28;20095;-85
2021/05/25 09:30:17;;;;;;;8.55;3.08;;;;;;;13.34;100.00;101332.28;5237208;28;20348;-85
2021/05/25 09:32:51;;;;;;;8.48;3.20;;;;;;;13.48;100.00;101329.69;5233957;28;20127;-86
2021/05/25 09:35:24;;;;;;;4.85;2.60;;;;;;;13.78;100.00;101321.84;5234621;28;20396;-85
2021/05/25 09:37:57;;;;;;;8.60;2.85;;;;;;;13.67;100.00;101323.06;5226780;28;20070;-85
2021/05/25 09:40:30;;;;;;;11.00;2.83;;;;;;;13.63;100.00;101316.34;5227450;28;20025;-86
2021/05/25 09:43:10;;;;;;;5.78;2.33;;;;;;;13.78;100.00;101321.00;5247626;28;20062;-85
2021/05/25 09:46:01;;;;;;;4.75;2.38;;;;;;;13.68;100.00;101316.66;5242508;28;20032;-85
2021/05/25 09:48:51;;;;;;;5.50;2.28;;;;;;;13.62;100.00;101324.63;5226214;28;20052;-85
2021/05/25 09:51:21;;;;;;;6.97;2.75;;;;;;;13.24;100.00;101323.53;5236276;28;20380;-85
2021/05/25 09:53:52;;;;;;;8.73;2.10;;;;;;;13.31;100.00;101324.56;5225585;28;20028;-84
2021/05/25 09:56:24;;;;;;;10.15;3.78;;;;;;;13.27;100.00;101337.53;5226304;28;20025;-85
2021/05/25 09:58:58;;;;;;;6.80;3.53;;;;;;;13.20;100.00;101337.34;5226639;28;20024;-85
2021/05/25 10:01:36;;;;;;;4.50;2.72;;;;;;;13.17;100.00;101343.06;5239527;28;20480;-84
2021/05/25 10:04:12;;;;;;;4.18;2.92;;;;;;;13.56;100.00;101349.56;5240930;28;20024;-84
2021/05/25 10:06:45;;;;;;;10.82;3.08;;;;;;;13.27;100.00;101345.59;5242842;28;20032;-84
2021/05/25 10:09:19;;;;;;;5.63;2.85;;;;;;;12.73;100.00;101365.97;5225334;28;20067;-85
2021/05/25 10:11:50;;;;;;;3.00;2.25;;;;;;;11.96;100.00;101378.78;5239460;28;20366;-84
2021/05/25 10:14:21;;;;;;;7.03;3.30;;;;;;;11.14;100.00;101372.91;5226662;28;20025;-83
2021/05/25 10:16:53;;;;;;;6.72;4.30;;;;;;;10.91;100.00;101377.94;5225834;28;20078;-88
2021/05/25 10:19:27;;;;;;;6.15;3.45;;;;;;;10.75;100.00;101383.19;5226509;28;20037;-84
2021/05/25 10:21:59;;;;;;;8.82;2.47;;;;;;;10.65;100.00;101387.78;5236480;28;20037;-84
2021/05/25 10:24:29;;;;;;;3.38;2.40;;;;;;;10.56;100.00;101406.47;5229638;28;20073;-85
2021/05/25 10:27:02;;;;;;;5.07;2.80;;;;;;;10.59;100.00;101391.91;5245835;28;20028;-85
2021/05/25 10:29:35;;;;;;;4.72;2.85;;;;;;;10.51;100.00;101402.56;5246361;28;20115;-85
2021/05/25 10:32:05;;;;;;;7.95;4.82;;;;;;;10.45;100.00;101404.03;5246540;28;20172;-85
2021/05/25 10:34:36;;;;;;;11.48;6.35;;;;;;;10.22;100.00;101416.13;5246428;28;20029;-84
2021/05/25 10:37:13;;;;;;;6.47;3.10;;;;;;;10.03;100.00;101406.34;5232724;28;20025;-84
2021/05/25 10:39:45;;;;;;;15.05;2.92;;;;;;;10.07;100.00;101400.53;5226074;28;20033;-84
2021/05/25 10:42:25;;;;;;;4.68;2.88;;;;;;;10.23;100.00;101399.88;5227913;28;20115;-84
2021/05/25 10:45:09;;;;;;;5.75;2.78;;;;;;;10.52;100.00;101420.34;5246338;28;20553;-85
2021/05/25 10:47:56;;;;;;;11.65;3.25;;;;;;;10.67;100.00;101456.41;5219666;28;20051;-84
2021/05/25 10:50:32;;;;;;;5.13;2.17;;;;;;;10.22;100.00;101451.84;5241895;28;20100;-84
2021/05/25 10:53:05;;;;;;;3.42;1.67;;;;;;;10.02;100.00;101452.91;5225562;28;20040;-84
2021/05/25 10:55:38;;;;;;;2.13;1.52;;;;;;;9.78;100.00;101443.56;5244671;28;20024;-84
2021/05/25 10:58:28;;;;;;;3.30;1.25;;;;;;;9.84;100.00;101452.88;5245996;28;20020;-84
2021/05/25 11:01:01;;;;;;;3.28;1.10;;;;;;;9.63;100.00;101447.69;5245566;28;20103;-83
2021/05/25 11:03:31;;;;;;;3.92;1.15;;;;;;;9.81;100.00;101453.16;5246008;28;20581;-87
2021/05/25 11:06:06;;;;;;;3.47;1.30;;;;;;;9.75;100.00;101454.59;5245781;28;20037;-86
2021/05/25 11:08:38;;;;;;;2.75;1.00;;;;;;;9.92;100.00;101463.69;5225116;28;20438;-84
2021/05/25 11:11:12;;;;;;;5.15;1.50;;;;;;;10.10;100.00;101461.91;5238444;28;20039;-85
2021/05/25 11:13:45;;;;;;;4.15;1.23;;;;;;;10.25;100.00;101461.47;5237354;28;20025;-85
2021/05/25 11:16:26;;;;;;;6.05;1.40;;;;;;;10.45;100.00;101468.41;5224537;28;20021;-84
2021/05/25 11:19:20;;;;;;;13.02;7.07;;;;;;;10.50;100.00;101465.28;5224860;28;20033;-85
2021/05/25 11:24:37;;;;;;;85.70;30.13;;;;;;;10.45;100.00;101455.00;5230073;28;20029;-85
2021/05/25 11:27:12;;;;;;;94.97;31.38;;;;;;;10.16;100.00;101465.84;5236225;28;20065;-84
2021/05/25 11:29:59;;;;;;;183.10;52.03;;;;;;;9.96;100.00;101443.63;5232029;28;20031;-84
2021/05/25 11:32:37;;;;;;;11.85;7.80;;;;;;;10.15;100.00;101441.88;5243040;28;20032;-84
2021/05/25 11:35:10;;;;;;;7.55;4.63;;;;;;;10.26;100.00;101447.06;5235315;28;20065;-84
2021/05/25 11:37:44;;;;;;;2.85;2.10;;;;;;;10.36;100.00;101439.81;5240088;28;20037;-84
2021/05/25 11:40:18;;;;;;;4.53;1.42;;;;;;;10.41;100.00;101426.78;5222520;28;20064;-84
2021/05/25 11:42:50;;;;;;;4.25;2.15;;;;;;;10.61;100.00;101427.50;5237999;28;20033;-85